createdAt,value
2022-08-27T00:00:10.191Z,34.66
2022-08-27T00:00:40.226Z,34.63
2022-08-27T00:01:12.003Z,34.61
2022-08-27T00:01:40.302Z,34.59
2022-08-27T00:02:10.422Z,34.61
2022-08-27T00:02:40.357Z,34.64
2022-08-27T00:03:10.395Z,34.66
2022-08-27T00:03:40.432Z,34.64
2022-08-27T00:04:10.494Z,34.58
2022-08-27T00:04:40.605Z,34.64
2022-08-27T00:05:10.622Z,34.66
2022-08-27T00:05:40.654Z,34.63
2022-08-27T00:06:10.685Z,34.64
2022-08-27T00:06:40.718Z,34.65
2022-08-27T00:07:10.794Z,34.61
2022-08-27T00:07:40.824Z,34.59
2022-08-27T00:08:11.104Z,34.70
2022-08-27T00:08:40.919Z,34.64
2022-08-27T00:09:10.946Z,34.63
2022-08-27T00:09:40.975Z,34.67
2022-08-27T00:10:11.015Z,34.61
2022-08-27T00:10:41.051Z,34.63
2022-08-27T00:11:11.084Z,34.61
2022-08-27T00:11:41.116Z,34.63
2022-08-27T00:12:11.178Z,34.66
2022-08-27T00:12:41.206Z,34.65
2022-08-27T00:13:11.245Z,34.66
2022-08-27T00:13:41.276Z,34.69
2022-08-27T00:14:11.306Z,34.61
2022-08-27T00:14:41.305Z,34.61
2022-08-27T00:15:11.300Z,34.59
2022-08-27T00:15:41.316Z,34.57
2022-08-27T00:16:11.379Z,34.65
2022-08-27T00:16:41.434Z,34.66
2022-08-27T00:17:11.444Z,34.67
2022-08-27T00:17:41.442Z,34.63
2022-08-27T00:18:11.651Z,34.63
2022-08-27T00:18:41.455Z,34.61
2022-08-27T00:19:11.575Z,34.64
2022-08-27T00:19:41.576Z,34.63
2022-08-27T00:20:11.585Z,34.61
2022-08-27T00:20:41.570Z,34.66
2022-08-27T00:21:11.565Z,34.64
2022-08-27T00:21:41.565Z,34.61
2022-08-27T00:22:11.568Z,34.64
2022-08-27T00:22:41.567Z,34.59
2022-08-27T00:23:11.555Z,34.61
2022-08-27T00:23:41.558Z,34.61
2022-08-27T00:24:11.549Z,34.58
2022-08-27T00:24:46.409Z,34.64
2022-08-27T00:25:11.636Z,34.62
2022-08-27T00:25:41.669Z,34.62
2022-08-27T00:26:11.698Z,34.67
2022-08-27T00:26:43.433Z,34.59
2022-08-27T00:27:11.782Z,34.61
2022-08-27T00:27:41.828Z,34.62
2022-08-27T00:28:12.001Z,34.67
2022-08-27T00:28:41.968Z,34.67
2022-08-27T00:29:11.994Z,34.62
2022-08-27T00:29:42.033Z,34.61
2022-08-27T00:30:12.071Z,34.59
2022-08-27T00:30:42.104Z,34.62
2022-08-27T00:31:12.707Z,34.61
2022-08-27T00:31:42.344Z,34.61
2022-08-27T00:32:12.398Z,34.68
2022-08-27T00:32:42.404Z,34.57
2022-08-27T00:33:12.442Z,34.61
2022-08-27T00:33:42.473Z,34.65
2022-08-27T00:34:12.936Z,34.58
2022-08-27T00:34:42.514Z,34.61
2022-08-27T00:35:12.560Z,34.62
2022-08-27T00:35:42.600Z,34.64
2022-08-27T00:36:12.636Z,34.67
2022-08-27T00:36:42.672Z,34.61
2022-08-27T00:37:12.712Z,34.65
2022-08-27T00:37:42.746Z,34.56
2022-08-27T00:38:12.781Z,34.59
2022-08-27T00:38:42.810Z,34.61
2022-08-27T00:39:12.844Z,34.61
2022-08-27T00:39:42.881Z,34.61
2022-08-27T00:40:12.953Z,34.64
2022-08-27T00:40:42.996Z,34.58
2022-08-27T00:41:13.046Z,34.55
2022-08-27T00:41:43.093Z,34.59
2022-08-27T00:42:13.132Z,34.59
2022-08-27T00:42:43.166Z,34.58
2022-08-27T00:43:13.203Z,34.58
2022-08-27T00:43:43.237Z,34.58
2022-08-27T00:44:13.273Z,34.59
2022-08-27T00:44:43.312Z,34.58
2022-08-27T00:45:13.357Z,34.64
2022-08-27T00:45:43.448Z,34.61
2022-08-27T00:46:13.574Z,34.62
2022-08-27T00:46:43.617Z,34.56
2022-08-27T00:47:13.652Z,34.58
2022-08-27T00:47:43.685Z,34.56
2022-08-27T00:48:13.717Z,34.53
2022-08-27T00:48:43.758Z,34.59
2022-08-27T00:49:13.795Z,34.62
2022-08-27T00:49:43.824Z,34.56
2022-08-27T00:50:13.860Z,34.56
2022-08-27T00:50:43.896Z,34.54
2022-08-27T00:51:13.927Z,34.54
2022-08-27T00:51:43.969Z,34.61
2022-08-27T00:52:13.960Z,34.58
2022-08-27T00:52:43.990Z,34.58
2022-08-27T00:53:14.030Z,34.58
2022-08-27T00:53:44.065Z,34.59
2022-08-27T00:54:18.759Z,34.59
2022-08-27T00:54:44.213Z,34.60
2022-08-27T00:55:14.252Z,34.55
2022-08-27T00:55:44.286Z,34.57
2022-08-27T00:56:14.335Z,34.56
2022-08-27T00:56:44.447Z,34.56
2022-08-27T00:57:14.494Z,34.57
2022-08-27T00:57:44.524Z,34.59
2022-08-27T00:58:14.570Z,34.59
2022-08-27T00:58:44.601Z,34.58
2022-08-27T00:59:14.636Z,34.60
2022-08-27T00:59:44.679Z,34.57
2022-08-27T01:00:14.717Z,34.59
2022-08-27T01:00:44.786Z,34.54
2022-08-27T01:01:14.911Z,34.57
2022-08-27T01:01:44.965Z,34.53
2022-08-27T01:02:15.015Z,34.56
2022-08-27T01:02:45.028Z,34.56
2022-08-27T01:03:15.053Z,34.54
2022-08-27T01:03:45.084Z,34.53
2022-08-27T01:04:15.114Z,34.54
2022-08-27T01:04:45.151Z,34.56
2022-08-27T01:05:15.180Z,34.53
2022-08-27T01:05:45.220Z,34.52
2022-08-27T01:06:16.094Z,34.57
2022-08-27T01:06:45.321Z,34.56
2022-08-27T01:07:15.350Z,34.56
2022-08-27T01:07:45.384Z,34.54
2022-08-27T01:08:15.422Z,34.57
2022-08-27T01:08:45.458Z,34.56
2022-08-27T01:09:15.496Z,34.53
2022-08-27T01:09:45.535Z,34.56
2022-08-27T01:10:15.561Z,34.54
2022-08-27T01:10:45.602Z,34.57
2022-08-27T01:11:15.641Z,34.56
2022-08-27T01:11:45.676Z,34.57
2022-08-27T01:12:15.709Z,34.56
2022-08-27T01:12:45.762Z,34.56
2022-08-27T01:13:15.795Z,34.54
2022-08-27T01:14:00.209Z,34.54
2022-08-27T01:14:15.879Z,34.54
2022-08-27T01:14:46.009Z,34.53
2022-08-27T01:15:19.944Z,34.60
2022-08-27T01:15:46.055Z,34.51
2022-08-27T01:16:16.137Z,34.56
2022-08-27T01:16:46.214Z,34.56
2022-08-27T01:17:16.207Z,34.53
2022-08-27T01:17:46.206Z,34.57
2022-08-27T01:18:16.279Z,34.49
2022-08-27T01:18:46.238Z,34.57
2022-08-27T01:19:16.358Z,34.54
2022-08-27T01:19:46.358Z,34.54
2022-08-27T01:20:16.352Z,34.46
2022-08-27T01:20:46.473Z,34.48
2022-08-27T01:21:16.614Z,34.53
2022-08-27T01:21:46.619Z,34.48
2022-08-27T01:22:21.750Z,34.54
2022-08-27T01:22:46.630Z,34.51
2022-08-27T01:23:16.626Z,34.51
2022-08-27T01:23:46.623Z,34.49
2022-08-27T01:24:16.621Z,34.51
2022-08-27T01:24:46.659Z,34.53
2022-08-27T01:25:16.678Z,34.48
2022-08-27T01:25:46.710Z,34.52
2022-08-27T01:26:16.761Z,34.51
2022-08-27T01:26:46.799Z,34.54
2022-08-27T01:27:16.832Z,34.48
2022-08-27T01:27:46.865Z,34.48
2022-08-27T01:28:16.904Z,34.51
2022-08-27T01:28:46.957Z,34.51
2022-08-27T01:29:16.985Z,34.49
2022-08-27T01:29:47.029Z,34.46
2022-08-27T01:30:17.061Z,34.49
2022-08-27T01:30:47.090Z,34.48
2022-08-27T01:31:17.175Z,34.49
2022-08-27T01:31:47.163Z,34.49
2022-08-27T01:32:17.184Z,34.54
2022-08-27T01:32:47.212Z,34.49
2022-08-27T01:33:17.281Z,34.56
2022-08-27T01:33:47.282Z,34.49
2022-08-27T01:34:17.310Z,34.49
2022-08-27T01:34:47.352Z,34.52
2022-08-27T01:35:17.389Z,34.49
2022-08-27T01:35:47.426Z,34.48
2022-08-27T01:36:17.470Z,34.51
2022-08-27T01:36:47.515Z,34.48
2022-08-27T01:37:17.546Z,34.48
2022-08-27T01:37:47.799Z,34.46
2022-08-27T01:38:21.630Z,34.49
2022-08-27T01:38:47.726Z,34.51
2022-08-27T01:39:17.728Z,34.49
2022-08-27T01:39:47.765Z,34.49
2022-08-27T01:40:17.846Z,34.49
2022-08-27T01:40:47.922Z,34.45
2022-08-27T01:41:17.965Z,34.51
2022-08-27T01:41:48.049Z,34.49
2022-08-27T01:42:18.113Z,34.49
2022-08-27T01:42:48.143Z,34.52
2022-08-27T01:43:18.179Z,34.47
2022-08-27T01:43:48.209Z,34.46
2022-08-27T01:44:20.834Z,34.49
2022-08-27T01:44:48.266Z,34.52
2022-08-27T01:45:18.306Z,34.50
2022-08-27T01:45:48.350Z,34.46
2022-08-27T01:46:18.421Z,34.55
2022-08-27T01:46:48.483Z,34.47
2022-08-27T01:47:18.538Z,34.43
2022-08-27T01:47:48.583Z,34.46
2022-08-27T01:48:18.611Z,34.47
2022-08-27T01:48:48.641Z,34.46
2022-08-27T01:49:18.679Z,34.47
2022-08-27T01:49:48.710Z,34.52
2022-08-27T01:50:18.753Z,34.46
2022-08-27T01:50:48.787Z,34.46
2022-08-27T01:51:18.822Z,34.46
2022-08-27T01:51:48.857Z,34.52
2022-08-27T01:52:18.888Z,34.47
2022-08-27T01:52:48.938Z,34.49
2022-08-27T01:53:18.970Z,34.43
2022-08-27T01:53:49.021Z,34.47
2022-08-27T01:54:19.057Z,34.46
2022-08-27T01:54:49.091Z,34.41
2022-08-27T01:55:19.125Z,34.44
2022-08-27T01:55:49.181Z,34.43
2022-08-27T01:56:19.212Z,34.50
2022-08-27T01:56:49.244Z,34.49
2022-08-27T01:57:21.964Z,34.51
2022-08-27T01:57:49.312Z,34.44
2022-08-27T01:58:19.342Z,34.44
2022-08-27T01:58:49.377Z,34.47
2022-08-27T01:59:19.415Z,34.40
2022-08-27T01:59:49.453Z,34.44
2022-08-27T02:00:19.482Z,34.46
2022-08-27T02:00:51.992Z,34.46
2022-08-27T02:01:19.853Z,34.42
2022-08-27T02:01:49.667Z,34.40
2022-08-27T02:02:19.778Z,34.41
2022-08-27T02:02:49.814Z,34.41
2022-08-27T02:03:19.852Z,34.41
2022-08-27T02:03:49.885Z,34.47
2022-08-27T02:04:19.920Z,34.37
2022-08-27T02:04:49.952Z,34.44
2022-08-27T02:05:19.983Z,34.40
2022-08-27T02:05:50.046Z,34.42
2022-08-27T02:06:20.060Z,34.46
2022-08-27T02:06:50.093Z,34.39
2022-08-27T02:07:20.124Z,34.44
2022-08-27T02:07:50.162Z,34.46
2022-08-27T02:08:20.194Z,34.46
2022-08-27T02:08:50.229Z,34.42
2022-08-27T02:09:20.264Z,34.47
2022-08-27T02:09:50.297Z,34.42
2022-08-27T02:10:20.331Z,34.43
2022-08-27T02:10:50.370Z,34.47
2022-08-27T02:11:20.401Z,34.41
2022-08-27T02:11:50.441Z,34.42
2022-08-27T02:12:20.475Z,34.38
2022-08-27T02:12:50.506Z,34.39
2022-08-27T02:13:20.546Z,34.39
2022-08-27T02:13:50.574Z,34.40
2022-08-27T02:14:20.593Z,34.44
2022-08-27T02:14:50.594Z,34.36
2022-08-27T02:15:20.594Z,34.38
2022-08-27T02:15:50.774Z,34.41
2022-08-27T02:16:20.778Z,34.38
2022-08-27T02:16:52.660Z,34.41
2022-08-27T02:17:20.764Z,34.36
2022-08-27T02:17:50.763Z,34.44
2022-08-27T02:18:20.762Z,34.44
2022-08-27T02:18:50.877Z,34.44
2022-08-27T02:19:20.885Z,34.42
2022-08-27T02:19:50.971Z,34.38
2022-08-27T02:20:20.969Z,34.38
2022-08-27T02:20:51.096Z,34.41
2022-08-27T02:21:21.096Z,34.42
2022-08-27T02:21:51.094Z,34.36
2022-08-27T02:22:21.098Z,34.39
2022-08-27T02:22:51.098Z,34.39
2022-08-27T02:23:21.099Z,34.36
2022-08-27T02:23:51.104Z,34.38
2022-08-27T02:24:21.113Z,34.35
2022-08-27T02:24:51.150Z,34.40
2022-08-27T02:25:21.191Z,34.40
2022-08-27T02:25:51.227Z,34.42
2022-08-27T02:26:21.255Z,34.46
2022-08-27T02:26:51.290Z,34.41
2022-08-27T02:27:21.323Z,34.42
2022-08-27T02:27:51.357Z,34.41
2022-08-27T02:28:21.392Z,34.41
2022-08-27T02:28:51.426Z,34.39
2022-08-27T02:29:21.461Z,34.31
2022-08-27T02:29:51.502Z,34.36
2022-08-27T02:30:21.549Z,34.39
2022-08-27T02:30:51.577Z,34.38
2022-08-27T02:31:21.672Z,34.41
2022-08-27T02:31:51.715Z,34.36
2022-08-27T02:32:31.131Z,34.41
2022-08-27T02:32:51.804Z,34.41
2022-08-27T02:33:21.837Z,34.36
2022-08-27T02:33:51.873Z,34.39
2022-08-27T02:34:21.907Z,34.33
2022-08-27T02:34:51.940Z,34.36
2022-08-27T02:35:22.003Z,34.38
2022-08-27T02:35:52.031Z,34.42
2022-08-27T02:36:22.075Z,34.38
2022-08-27T02:36:52.106Z,34.33
2022-08-27T02:37:22.139Z,34.42
2022-08-27T02:37:52.173Z,34.39
2022-08-27T02:38:22.209Z,34.38
2022-08-27T02:38:52.318Z,34.31
2022-08-27T02:39:22.347Z,34.41
2022-08-27T02:39:52.433Z,34.38
2022-08-27T02:40:22.642Z,34.36
2022-08-27T02:40:54.024Z,34.39
2022-08-27T02:41:22.482Z,34.39
2022-08-27T02:41:52.515Z,34.39
2022-08-27T02:42:22.549Z,34.31
2022-08-27T02:42:52.593Z,34.38
2022-08-27T02:43:25.318Z,34.31
2022-08-27T02:43:52.751Z,34.33
2022-08-27T02:44:22.782Z,34.36
2022-08-27T02:44:52.814Z,34.36
2022-08-27T02:45:22.851Z,34.33
2022-08-27T02:45:52.890Z,34.35
2022-08-27T02:46:22.972Z,34.39
2022-08-27T02:46:53.618Z,34.38
2022-08-27T02:47:23.103Z,34.36
2022-08-27T02:47:53.141Z,34.36
2022-08-27T02:48:23.183Z,34.34
2022-08-27T02:48:53.209Z,34.33
2022-08-27T02:49:23.245Z,34.31
2022-08-27T02:49:53.277Z,34.36
2022-08-27T02:50:27.006Z,34.31
2022-08-27T02:50:53.423Z,34.33
2022-08-27T02:51:23.487Z,34.30
2022-08-27T02:51:53.467Z,34.34
2022-08-27T02:52:25.269Z,34.34
2022-08-27T02:52:53.580Z,34.33
2022-08-27T02:53:24.012Z,34.28
2022-08-27T02:53:53.668Z,34.31
2022-08-27T02:54:23.697Z,34.33
2022-08-27T02:54:53.746Z,34.25
2022-08-27T02:55:23.834Z,34.33
2022-08-27T02:55:53.871Z,34.28
2022-08-27T02:56:23.911Z,34.34
2022-08-27T02:56:53.951Z,34.31
2022-08-27T02:57:23.980Z,34.30
2022-08-27T02:57:54.014Z,34.30
2022-08-27T02:58:24.052Z,34.33
2022-08-27T02:58:54.087Z,34.30
2022-08-27T02:59:24.116Z,34.31
2022-08-27T02:59:54.153Z,34.30
2022-08-27T03:00:24.195Z,34.32
2022-08-27T03:00:54.227Z,34.33
2022-08-27T03:01:24.367Z,34.33
2022-08-27T03:01:54.459Z,34.30
2022-08-27T03:02:27.530Z,34.29
2022-08-27T03:02:54.483Z,34.31
2022-08-27T03:03:24.537Z,34.26
2022-08-27T03:03:54.566Z,34.29
2022-08-27T03:04:24.604Z,34.28
2022-08-27T03:04:54.641Z,34.33
2022-08-27T03:05:24.673Z,34.25
2022-08-27T03:05:54.706Z,34.33
2022-08-27T03:06:24.748Z,34.26
2022-08-27T03:06:54.781Z,34.28
2022-08-27T03:07:24.816Z,34.26
2022-08-27T03:07:54.855Z,34.23
2022-08-27T03:08:24.889Z,34.29
2022-08-27T03:08:54.920Z,34.31
2022-08-27T03:09:24.962Z,34.32
2022-08-27T03:09:55.000Z,34.34
2022-08-27T03:10:25.033Z,34.23
2022-08-27T03:10:55.070Z,34.26
2022-08-27T03:11:25.120Z,34.28
2022-08-27T03:11:55.154Z,34.25
2022-08-27T03:12:25.191Z,34.26
2022-08-27T03:12:55.231Z,34.28
2022-08-27T03:13:25.267Z,34.30
2022-08-27T03:13:55.303Z,34.26
2022-08-27T03:14:25.320Z,34.25
2022-08-27T03:14:55.377Z,34.26
2022-08-27T03:15:25.508Z,34.28
2022-08-27T03:15:55.546Z,34.25
2022-08-27T03:16:25.615Z,34.26
2022-08-27T03:16:55.594Z,34.26
2022-08-27T03:17:25.590Z,34.25
2022-08-27T03:17:55.586Z,34.29
2022-08-27T03:18:25.705Z,34.23
2022-08-27T03:18:55.700Z,34.23
2022-08-27T03:19:25.705Z,34.28
2022-08-27T03:19:55.824Z,34.29
2022-08-27T03:20:25.844Z,34.23
2022-08-27T03:20:55.824Z,34.26
2022-08-27T03:21:25.945Z,34.23
2022-08-27T03:21:55.939Z,34.28
2022-08-27T03:22:25.945Z,34.26
2022-08-27T03:22:55.942Z,34.26
2022-08-27T03:23:25.937Z,34.29
2022-08-27T03:23:55.937Z,34.21
2022-08-27T03:24:25.946Z,34.27
2022-08-27T03:24:56.046Z,34.28
2022-08-27T03:25:26.082Z,34.26
2022-08-27T03:25:56.116Z,34.23
2022-08-27T03:26:26.150Z,34.19
2022-08-27T03:26:56.189Z,34.19
2022-08-27T03:27:26.222Z,34.20
2022-08-27T03:27:56.252Z,34.22
2022-08-27T03:28:26.288Z,34.17
2022-08-27T03:28:56.321Z,34.19
2022-08-27T03:29:26.352Z,34.23
2022-08-27T03:29:59.594Z,34.20
2022-08-27T03:30:26.445Z,34.19
2022-08-27T03:30:56.534Z,34.25
2022-08-27T03:31:26.837Z,34.22
2022-08-27T03:31:56.582Z,34.23
2022-08-27T03:32:26.613Z,34.20
2022-08-27T03:32:56.649Z,34.25
2022-08-27T03:33:26.681Z,34.23
2022-08-27T03:33:56.713Z,34.18
2022-08-27T03:34:26.750Z,34.22
2022-08-27T03:34:56.785Z,34.22
2022-08-27T03:35:26.814Z,34.20
2022-08-27T03:35:57.143Z,34.20
2022-08-27T03:36:26.928Z,34.25
2022-08-27T03:36:56.952Z,34.20
2022-08-27T03:37:26.986Z,34.19
2022-08-27T03:37:57.027Z,34.25
2022-08-27T03:38:27.058Z,34.21
2022-08-27T03:38:57.092Z,34.26
2022-08-27T03:39:27.129Z,34.20
2022-08-27T03:39:57.220Z,34.18
2022-08-27T03:40:27.346Z,34.26
2022-08-27T03:40:57.362Z,34.18
2022-08-27T03:41:43.814Z,34.25
2022-08-27T03:41:57.451Z,34.21
2022-08-27T03:42:27.488Z,34.21
2022-08-27T03:42:57.519Z,34.23
2022-08-27T03:43:27.551Z,34.20
2022-08-27T03:43:57.586Z,34.19
2022-08-27T03:44:27.622Z,34.20
2022-08-27T03:44:57.657Z,34.20
2022-08-27T03:45:27.692Z,34.23
2022-08-27T03:46:01.684Z,34.18
2022-08-27T03:46:27.825Z,34.20
2022-08-27T03:46:57.876Z,34.18
2022-08-27T03:47:27.918Z,34.17
2022-08-27T03:47:57.950Z,34.17
2022-08-27T03:48:27.980Z,34.15
2022-08-27T03:48:58.616Z,34.21
2022-08-27T03:49:28.113Z,34.20
2022-08-27T03:49:58.155Z,34.23
2022-08-27T03:50:28.187Z,34.15
2022-08-27T03:50:58.228Z,34.21
2022-08-27T03:51:28.265Z,34.17
2022-08-27T03:51:58.297Z,34.18
2022-08-27T03:52:28.330Z,34.17
2022-08-27T03:52:58.368Z,34.15
2022-08-27T03:53:28.400Z,34.16
2022-08-27T03:53:58.437Z,34.18
2022-08-27T03:54:28.474Z,34.18
2022-08-27T03:54:58.508Z,34.15
2022-08-27T03:55:28.546Z,34.16
2022-08-27T03:55:58.583Z,34.20
2022-08-27T03:56:28.615Z,34.16
2022-08-27T03:56:58.656Z,34.13
2022-08-27T03:57:28.688Z,34.12
2022-08-27T03:57:58.806Z,34.16
2022-08-27T03:58:28.849Z,34.16
2022-08-27T03:58:58.887Z,34.20
2022-08-27T03:59:28.928Z,34.18
2022-08-27T03:59:58.952Z,34.18
2022-08-27T04:00:28.988Z,34.15
2022-08-27T04:00:59.023Z,34.18
2022-08-27T04:01:29.103Z,34.19
2022-08-27T04:01:59.184Z,34.18
2022-08-27T04:02:29.230Z,34.15
2022-08-27T04:02:59.343Z,34.13
2022-08-27T04:03:29.375Z,34.16
2022-08-27T04:03:59.419Z,34.18
2022-08-27T04:04:29.447Z,34.15
2022-08-27T04:04:59.473Z,34.16
2022-08-27T04:05:29.512Z,34.19
2022-08-27T04:05:59.547Z,34.16
2022-08-27T04:06:29.580Z,34.15
2022-08-27T04:06:59.611Z,34.16
2022-08-27T04:07:29.642Z,34.15
2022-08-27T04:07:59.670Z,34.13
2022-08-27T04:08:29.707Z,34.15
2022-08-27T04:08:59.744Z,34.15
2022-08-27T04:09:29.772Z,34.19
2022-08-27T04:09:59.812Z,34.13
2022-08-27T04:10:34.750Z,34.18
2022-08-27T04:10:59.903Z,34.13
2022-08-27T04:11:29.938Z,34.16
2022-08-27T04:11:59.973Z,34.15
2022-08-27T04:12:30.012Z,34.18
2022-08-27T04:13:00.041Z,34.18
2022-08-27T04:13:30.084Z,34.18
2022-08-27T04:14:00.116Z,34.12
2022-08-27T04:14:30.122Z,34.11
2022-08-27T04:15:00.119Z,34.13
2022-08-27T04:15:30.144Z,34.18
2022-08-27T04:16:00.216Z,34.15
2022-08-27T04:16:30.276Z,34.10
2022-08-27T04:17:00.297Z,34.09
2022-08-27T04:17:30.414Z,34.13
2022-08-27T04:18:00.410Z,34.16
2022-08-27T04:18:30.427Z,34.16
2022-08-27T04:19:00.543Z,34.14
2022-08-27T04:19:30.664Z,34.11
2022-08-27T04:20:24.640Z,34.11
2022-08-27T04:20:35.401Z,34.13
2022-08-27T04:21:00.717Z,34.10
2022-08-27T04:21:30.716Z,34.12
2022-08-27T04:22:00.715Z,34.19
2022-08-27T04:22:30.825Z,34.13
2022-08-27T04:23:00.826Z,34.12
2022-08-27T04:23:30.944Z,34.12
2022-08-27T04:24:00.938Z,34.13
2022-08-27T04:24:30.964Z,34.14
2022-08-27T04:25:01.004Z,34.14
2022-08-27T04:25:31.052Z,34.15
2022-08-27T04:26:01.112Z,34.18
2022-08-27T04:26:31.148Z,34.13
2022-08-27T04:27:01.188Z,34.10
2022-08-27T04:27:31.213Z,34.11
2022-08-27T04:28:01.287Z,34.09
2022-08-27T04:28:34.174Z,34.16
2022-08-27T04:29:01.378Z,34.14
2022-08-27T04:29:31.415Z,34.10
2022-08-27T04:30:01.454Z,34.12
2022-08-27T04:30:31.488Z,34.13
2022-08-27T04:31:01.612Z,34.16
2022-08-27T04:31:31.752Z,34.11
2022-08-27T04:32:01.680Z,34.15
2022-08-27T04:32:31.711Z,34.11
2022-08-27T04:33:01.720Z,34.13
2022-08-27T04:33:31.767Z,34.05
2022-08-27T04:34:01.793Z,34.08
2022-08-27T04:34:31.832Z,34.09
2022-08-27T04:35:01.869Z,34.10
2022-08-27T04:35:31.902Z,34.10
2022-08-27T04:36:01.966Z,34.13
2022-08-27T04:36:32.030Z,34.15
2022-08-27T04:37:02.067Z,34.10
2022-08-27T04:37:32.097Z,34.13
2022-08-27T04:38:02.134Z,34.09
2022-08-27T04:38:32.166Z,34.05
2022-08-27T04:39:02.184Z,34.11
2022-08-27T04:39:32.222Z,34.11
2022-08-27T04:40:02.349Z,34.07
2022-08-27T04:40:32.419Z,34.10
2022-08-27T04:41:02.457Z,34.07
2022-08-27T04:41:32.495Z,34.08
2022-08-27T04:42:02.526Z,34.08
2022-08-27T04:42:32.605Z,34.10
2022-08-27T04:43:02.645Z,34.09
2022-08-27T04:43:32.681Z,34.07
2022-08-27T04:44:02.715Z,34.10
2022-08-27T04:44:32.762Z,34.07
2022-08-27T04:45:02.788Z,34.13
2022-08-27T04:45:32.841Z,34.10
2022-08-27T04:46:02.941Z,34.11
2022-08-27T04:46:32.998Z,34.00
2022-08-27T04:47:03.024Z,34.13
2022-08-27T04:47:33.069Z,34.09
2022-08-27T04:48:03.157Z,34.08
2022-08-27T04:48:33.174Z,34.05
2022-08-27T04:49:03.231Z,34.07
2022-08-27T04:49:33.376Z,34.08
2022-08-27T04:50:05.612Z,34.08
2022-08-27T04:50:33.433Z,34.06
2022-08-27T04:51:03.354Z,34.10
2022-08-27T04:51:33.456Z,34.07
2022-08-27T04:52:03.490Z,34.09
2022-08-27T04:52:33.528Z,34.08
2022-08-27T04:53:03.580Z,34.09
2022-08-27T04:53:33.589Z,34.09
2022-08-27T04:54:03.622Z,34.09
2022-08-27T04:54:33.658Z,34.05
2022-08-27T04:55:03.687Z,34.09
2022-08-27T04:55:33.750Z,34.08
2022-08-27T04:56:03.782Z,34.10
2022-08-27T04:56:33.818Z,34.07
2022-08-27T04:57:03.862Z,34.07
2022-08-27T04:57:33.893Z,34.07
2022-08-27T04:58:03.968Z,34.11
2022-08-27T04:58:34.034Z,34.06
2022-08-27T04:59:04.116Z,34.11
2022-08-27T04:59:34.145Z,34.05
2022-08-27T05:00:04.192Z,34.03
2022-08-27T05:00:34.252Z,34.06
2022-08-27T05:01:04.284Z,34.06
2022-08-27T05:01:34.415Z,34.05
2022-08-27T05:02:04.804Z,34.05
2022-08-27T05:02:34.466Z,34.04
2022-08-27T05:03:04.491Z,34.06
2022-08-27T05:03:34.525Z,34.08
2022-08-27T05:04:04.559Z,34.06
2022-08-27T05:04:34.589Z,34.08
2022-08-27T05:05:04.688Z,34.03
2022-08-27T05:05:34.732Z,34.03
2022-08-27T05:06:04.728Z,34.02
2022-08-27T05:06:34.765Z,34.03
2022-08-27T05:07:04.802Z,34.03
2022-08-27T05:07:34.831Z,34.09
2022-08-27T05:08:04.860Z,34.03
2022-08-27T05:08:34.963Z,34.03
2022-08-27T05:09:04.997Z,34.06
2022-08-27T05:09:35.032Z,34.06
2022-08-27T05:10:05.067Z,34.09
2022-08-27T05:10:35.122Z,34.05
2022-08-27T05:11:05.172Z,34.09
2022-08-27T05:11:35.203Z,33.98
2022-08-27T05:12:05.240Z,34.06
2022-08-27T05:12:35.269Z,34.03
2022-08-27T05:13:05.302Z,34.06
2022-08-27T05:13:35.337Z,34.06
2022-08-27T05:14:05.371Z,34.03
2022-08-27T05:14:35.364Z,34.03
2022-08-27T05:15:05.367Z,34.07
2022-08-27T05:15:35.413Z,34.06
2022-08-27T05:16:05.444Z,34.02
2022-08-27T05:16:35.413Z,34.06
2022-08-27T05:17:05.412Z,34.06
2022-08-27T05:17:35.532Z,34.03
2022-08-27T05:18:05.532Z,34.02
2022-08-27T05:18:42.231Z,34.08
2022-08-27T05:19:05.552Z,34.06
2022-08-27T05:19:35.550Z,33.97
2022-08-27T05:20:05.550Z,34.03
2022-08-27T05:20:35.544Z,34.05
2022-08-27T05:21:05.563Z,34.03
2022-08-27T05:21:35.645Z,34.00
2022-08-27T05:22:05.643Z,34.03
2022-08-27T05:22:35.761Z,34.02
2022-08-27T05:23:05.758Z,33.98
2022-08-27T05:23:35.765Z,34.03
2022-08-27T05:24:05.840Z,34.00
2022-08-27T05:24:35.866Z,34.02
2022-08-27T05:25:05.904Z,34.03
2022-08-27T05:25:35.933Z,34.03
2022-08-27T05:26:05.986Z,34.04
2022-08-27T05:26:36.023Z,34.05
2022-08-27T05:27:06.060Z,34.06
2022-08-27T05:27:36.087Z,34.03
2022-08-27T05:28:06.128Z,34.06
2022-08-27T05:28:36.162Z,34.01
2022-08-27T05:29:06.199Z,34.06
2022-08-27T05:29:36.231Z,34.00
2022-08-27T05:30:06.278Z,34.01
2022-08-27T05:30:36.309Z,34.06
2022-08-27T05:31:06.460Z,34.05
2022-08-27T05:31:36.451Z,34.06
2022-08-27T05:32:06.484Z,34.05
2022-08-27T05:32:36.516Z,34.00
2022-08-27T05:33:06.551Z,34.04
2022-08-27T05:33:36.586Z,34.03
2022-08-27T05:34:10.060Z,33.98
2022-08-27T05:34:36.668Z,34.03
2022-08-27T05:35:06.703Z,34.04
2022-08-27T05:35:36.735Z,34.01
2022-08-27T05:36:06.805Z,34.04
2022-08-27T05:36:36.844Z,34.04
2022-08-27T05:37:06.875Z,34.04
2022-08-27T05:37:36.904Z,34.01
2022-08-27T05:38:06.973Z,34.03
2022-08-27T05:38:37.015Z,34.03
2022-08-27T05:39:07.056Z,34.00
2022-08-27T05:39:37.091Z,34.01
2022-08-27T05:40:07.241Z,34.01
2022-08-27T05:40:37.191Z,34.06
2022-08-27T05:41:07.253Z,34.01
2022-08-27T05:41:37.294Z,34.01
2022-08-27T05:42:07.328Z,34.04
2022-08-27T05:42:37.361Z,34.01
2022-08-27T05:43:07.405Z,34.01
2022-08-27T05:43:37.438Z,33.97
2022-08-27T05:44:23.986Z,34.05
2022-08-27T05:44:41.129Z,34.03
2022-08-27T05:45:07.609Z,34.01
2022-08-27T05:45:37.642Z,34.06
2022-08-27T05:46:07.775Z,34.04
2022-08-27T05:46:37.844Z,34.04
2022-08-27T05:47:07.869Z,33.98
2022-08-27T05:47:44.535Z,34.01
2022-08-27T05:48:08.020Z,34.06
2022-08-27T05:48:37.944Z,34.00
2022-08-27T05:49:07.975Z,34.03
2022-08-27T05:49:38.007Z,34.03
2022-08-27T05:50:08.049Z,34.04
2022-08-27T05:50:38.087Z,34.00
2022-08-27T05:51:08.189Z,34.04
2022-08-27T05:51:38.223Z,34.03
2022-08-27T05:52:08.258Z,34.00
2022-08-27T05:52:38.291Z,34.00
2022-08-27T05:53:08.329Z,34.03
2022-08-27T05:53:38.361Z,34.01
2022-08-27T05:54:09.069Z,34.03
2022-08-27T05:54:38.393Z,34.00
2022-08-27T05:55:08.433Z,34.03
2022-08-27T05:55:38.467Z,34.03
2022-08-27T05:56:08.543Z,34.00
2022-08-27T05:56:38.589Z,34.01
2022-08-27T05:57:08.620Z,34.00
2022-08-27T05:57:38.665Z,34.06
2022-08-27T05:58:08.709Z,33.95
2022-08-27T05:58:38.738Z,33.96
2022-08-27T05:59:08.831Z,34.00
2022-08-27T05:59:38.847Z,34.00
2022-08-27T06:00:08.882Z,33.98
2022-08-27T06:00:38.929Z,34.01
2022-08-27T06:01:10.407Z,34.03
2022-08-27T06:01:39.048Z,34.07
2022-08-27T06:02:09.152Z,34.00
2022-08-27T06:02:39.247Z,33.98
2022-08-27T06:03:09.186Z,34.01
2022-08-27T06:03:39.226Z,33.96
2022-08-27T06:04:09.340Z,34.01
2022-08-27T06:04:39.317Z,33.98
2022-08-27T06:05:09.455Z,34.02
2022-08-27T06:05:39.408Z,33.96
2022-08-27T06:06:09.483Z,33.98
2022-08-27T06:06:39.521Z,33.98
2022-08-27T06:07:09.559Z,33.98
2022-08-27T06:07:39.588Z,33.98
2022-08-27T06:08:09.858Z,33.98
2022-08-27T06:08:39.655Z,33.98
2022-08-27T06:09:09.691Z,33.96
2022-08-27T06:09:39.726Z,33.96
2022-08-27T06:10:09.765Z,33.93
2022-08-27T06:10:39.805Z,33.96
2022-08-27T06:11:09.849Z,34.00
2022-08-27T06:11:39.887Z,33.98
2022-08-27T06:12:09.918Z,33.96
2022-08-27T06:12:39.949Z,34.03
2022-08-27T06:13:09.986Z,34.01
2022-08-27T06:13:40.021Z,33.96
2022-08-27T06:14:10.110Z,33.99
2022-08-27T06:14:40.103Z,33.96
2022-08-27T06:15:10.100Z,34.04
2022-08-27T06:15:40.208Z,33.98
2022-08-27T06:16:10.258Z,33.96
2022-08-27T06:16:40.255Z,34.01
2022-08-27T06:17:10.377Z,33.96
2022-08-27T06:17:40.495Z,33.96
2022-08-27T06:18:10.818Z,34.01
2022-08-27T06:18:40.732Z,33.96
2022-08-27T06:19:10.727Z,34.01
2022-08-27T06:19:40.722Z,33.98
2022-08-27T06:20:10.721Z,33.99
2022-08-27T06:20:40.715Z,34.01
2022-08-27T06:21:10.793Z,33.96
2022-08-27T06:21:40.795Z,34.02
2022-08-27T06:22:11.165Z,33.98
2022-08-27T06:22:41.021Z,33.94
2022-08-27T06:23:11.021Z,34.01
2022-08-27T06:23:41.017Z,34.01
2022-08-27T06:24:11.018Z,33.98
2022-08-27T06:24:41.057Z,34.04
2022-08-27T06:25:11.096Z,33.98
2022-08-27T06:25:41.132Z,33.98
2022-08-27T06:26:11.180Z,33.96
2022-08-27T06:26:41.221Z,33.96